createdAt,value
2018-02-17T00:00:56.660Z,39.40
2018-02-17T00:03:25.248Z,41.40
2018-02-17T00:05:53.782Z,40.42
2018-02-17T00:08:21.599Z,45.22
2018-02-17T00:10:50.108Z,41.05
2018-02-17T00:13:17.861Z,37.80
2018-02-17T00:15:45.679Z,41.85
2018-02-17T00:18:13.434Z,41.80
2018-02-17T00:20:41.205Z,36.72
2018-02-17T00:23:09.059Z,38.63
2018-02-17T00:25:36.813Z,39.20
2018-02-17T00:28:04.582Z,38.53
2018-02-17T00:30:32.394Z,42.97
2018-02-17T00:33:00.157Z,41.03
2018-02-17T00:35:27.930Z,49.03
2018-02-17T00:37:55.757Z,37.03
2018-02-17T00:40:23.527Z,48.38
2018-02-17T00:42:52.078Z,45.92
2018-02-17T00:45:20.683Z,39.63
2018-02-17T00:47:48.429Z,47.70
2018-02-17T00:50:16.223Z,46.03
2018-02-17T00:52:45.438Z,53.25
2018-02-17T00:55:13.963Z,47.62
2018-02-17T00:57:44.365Z,46.17
2018-02-17T01:00:12.162Z,44.58
2018-02-17T01:02:39.932Z,43.78
2018-02-17T01:05:07.693Z,44.25
2018-02-17T01:07:35.506Z,45.47
2018-02-17T01:10:03.257Z,54.42
2018-02-17T01:12:31.794Z,48.45
2018-02-17T01:14:59.602Z,39.67
2018-02-17T01:17:28.121Z,46.30
2018-02-17T01:19:55.899Z,43.63
2018-02-17T01:22:23.710Z,49.15
2018-02-17T01:24:52.231Z,52.03
2018-02-17T01:27:19.987Z,56.10
2018-02-17T01:29:47.797Z,48.28
2018-02-17T01:32:16.319Z,49.53
2018-02-17T01:34:44.071Z,34.42
2018-02-17T01:37:11.894Z,51.33
2018-02-17T01:39:39.671Z,45.72
2018-02-17T01:42:08.202Z,56.55
2018-02-17T01:44:35.997Z,52.62
2018-02-17T01:47:03.759Z,47.67
2018-02-17T01:49:31.513Z,50.42
2018-02-17T01:51:59.417Z,58.75
2018-02-17T01:54:27.959Z,51.78
2018-02-17T01:56:55.710Z,49.90
2018-02-17T01:59:23.537Z,51.97
2018-02-17T02:01:51.286Z,68.22
2018-02-17T02:04:19.798Z,52.85
2018-02-17T02:06:47.601Z,59.10
2018-02-17T02:09:15.363Z,50.75
2018-02-17T02:11:43.126Z,59.58
2018-02-17T02:14:10.945Z,58.47
2018-02-17T02:16:38.702Z,49.63
2018-02-17T02:19:06.474Z,54.53
2018-02-17T02:21:34.287Z,53.67
2018-02-17T02:24:02.817Z,58.13
2018-02-17T02:26:30.581Z,59.17
2018-02-17T02:28:58.412Z,55.42
2018-02-17T02:31:26.165Z,57.40
2018-02-17T02:33:53.947Z,55.50
2018-02-17T02:36:21.758Z,56.05
2018-02-17T02:38:49.531Z,55.50
2018-02-17T02:41:17.299Z,44.38
2018-02-17T02:43:45.104Z,54.22
2018-02-17T02:46:12.883Z,42.55
2018-02-17T02:48:40.643Z,50.70
2018-02-17T02:51:08.459Z,54.78
2018-02-17T02:53:36.979Z,61.15
2018-02-17T02:56:04.755Z,56.42
2018-02-17T02:58:32.583Z,56.33
2018-02-17T03:01:00.361Z,59.80
2018-02-17T03:03:28.132Z,53.42
2018-02-17T03:05:55.938Z,56.80
2018-02-17T03:08:23.705Z,47.60
2018-02-17T03:10:51.472Z,49.83
2018-02-17T03:13:20.050Z,55.38
2018-02-17T03:15:48.567Z,54.63
2018-02-17T03:18:16.328Z,41.45
2018-02-17T03:20:44.206Z,45.90
2018-02-17T03:23:11.960Z,58.85
2018-02-17T03:25:39.730Z,45.20
2018-02-17T03:28:07.532Z,50.05
2018-02-17T03:30:35.302Z,50.55
2018-02-17T03:33:03.823Z,54.45
2018-02-17T03:35:31.633Z,44.28
2018-02-17T03:37:59.388Z,43.13
2018-02-17T03:40:27.144Z,45.00
2018-02-17T03:42:54.949Z,46.63
2018-02-17T03:45:23.479Z,43.20
2018-02-17T03:47:51.236Z,49.35
2018-02-17T03:50:19.056Z,40.83
2018-02-17T03:52:46.869Z,49.08
2018-02-17T03:55:14.621Z,49.47
2018-02-17T03:57:42.455Z,51.22
2018-02-17T04:00:10.216Z,57.95
2018-02-17T04:02:37.972Z,58.15
2018-02-17T04:05:05.805Z,45.92
2018-02-17T04:07:34.320Z,51.22
2018-02-17T04:10:02.072Z,50.33
2018-02-17T04:12:29.887Z,51.47
2018-02-17T04:14:57.640Z,50.90
2018-02-17T04:17:26.164Z,53.63
2018-02-17T04:19:53.971Z,57.75
2018-02-17T04:22:22.488Z,50.00
2018-02-17T04:24:51.006Z,54.08
2018-02-17T04:27:18.813Z,52.45
2018-02-17T04:29:46.569Z,56.72
2018-02-17T04:32:14.313Z,54.25
2018-02-17T04:34:42.113Z,62.17
2018-02-17T04:37:10.637Z,51.15
2018-02-17T04:53:10.813Z,47.80
2018-02-17T04:55:44.357Z,47.60
2018-02-17T04:58:17.762Z,54.47
2018-02-17T05:00:49.072Z,48.60
2018-02-17T05:03:33.618Z,57.42
2018-02-17T05:06:07.117Z,50.12
2018-02-17T05:08:40.542Z,42.85
2018-02-17T05:11:08.306Z,54.67
2018-02-17T05:13:36.059Z,62.22
2018-02-17T05:16:04.641Z,60.03
2018-02-17T05:18:38.123Z,54.53
2018-02-17T05:21:16.593Z,55.42
2018-02-17T05:23:55.028Z,60.00
2018-02-17T05:26:26.481Z,58.20
2018-02-17T05:28:57.643Z,63.00
2018-02-17T05:31:25.396Z,50.85
2018-02-17T05:33:53.218Z,55.25
2018-02-17T05:49:57.196Z,52.15
2018-02-17T05:52:25.714Z,48.35
2018-02-17T05:54:53.459Z,55.40
2018-02-17T05:57:21.258Z,63.72
2018-02-17T05:59:49.018Z,58.83
2018-02-17T06:02:16.770Z,71.75
2018-02-17T06:04:44.580Z,52.60
2018-02-17T06:07:13.093Z,57.53
2018-02-17T06:09:40.838Z,60.92
2018-02-17T06:12:08.643Z,52.45
2018-02-17T06:14:36.416Z,58.90
2018-02-17T06:17:04.176Z,63.90
2018-02-17T06:19:31.975Z,56.50
2018-02-17T06:21:59.741Z,51.67
2018-02-17T06:24:27.494Z,60.72
2018-02-17T06:26:55.293Z,50.83
2018-02-17T06:29:23.032Z,62.25
2018-02-17T06:31:50.772Z,57.38
2018-02-17T06:34:19.337Z,55.50
2018-02-17T06:36:47.088Z,56.67
2018-02-17T06:39:14.882Z,67.93
2018-02-17T06:41:42.684Z,54.00
2018-02-17T06:44:10.433Z,58.70
2018-02-17T06:46:38.172Z,52.80
2018-02-17T06:49:05.968Z,60.90
2018-02-17T06:51:33.719Z,49.90
2018-02-17T06:54:01.460Z,51.88
2018-02-17T06:56:29.535Z,48.97
2018-02-17T06:58:58.113Z,45.22
2018-02-17T07:01:25.862Z,42.65
2018-02-17T07:03:54.428Z,57.60
2018-02-17T07:06:22.949Z,47.10
2018-02-17T07:08:50.686Z,45.35
2018-02-17T07:11:18.480Z,46.35
2018-02-17T07:13:46.220Z,43.60
2018-02-17T07:16:13.963Z,45.12
2018-02-17T07:18:42.525Z,48.00
2018-02-17T07:21:10.265Z,42.47
2018-02-17T07:23:38.001Z,39.60
2018-02-17T07:26:05.790Z,41.00
2018-02-17T07:28:33.560Z,35.83
2018-02-17T07:31:01.308Z,37.05
2018-02-17T07:33:29.105Z,34.65
2018-02-17T07:35:57.618Z,33.83
2018-02-17T07:38:25.367Z,29.58
2018-02-17T07:40:53.164Z,34.65
2018-02-17T07:43:20.912Z,35.25
2018-02-17T07:45:48.675Z,34.13
2018-02-17T07:48:16.476Z,29.08
2018-02-17T07:50:44.223Z,32.05
2018-02-17T07:53:11.964Z,33.70
2018-02-17T07:55:39.764Z,38.05
2018-02-17T07:58:07.507Z,36.22
2018-02-17T08:00:35.254Z,31.92
2018-02-17T08:03:03.058Z,41.08
2018-02-17T08:05:31.601Z,30.75
2018-02-17T08:07:59.568Z,31.17
2018-02-17T08:10:27.427Z,30.02
2018-02-17T08:12:55.177Z,30.85
2018-02-17T08:15:22.958Z,30.00
2018-02-17T08:17:50.852Z,31.55
2018-02-17T08:20:18.609Z,28.73
2018-02-17T08:22:46.365Z,27.80
2018-02-17T08:25:14.163Z,24.70
2018-02-17T08:27:42.685Z,24.42
2018-02-17T08:30:10.429Z,25.80
2018-02-17T08:32:38.232Z,27.17
2018-02-17T08:35:05.981Z,27.77
2018-02-17T08:37:33.745Z,26.17
2018-02-17T08:40:01.566Z,25.48
2018-02-17T08:42:29.317Z,26.90
2018-02-17T08:44:57.089Z,30.30
2018-02-17T08:47:24.896Z,26.62
2018-02-17T08:49:52.646Z,29.23
2018-02-17T08:52:20.409Z,26.70
2018-02-17T08:54:48.212Z,24.80
2018-02-17T08:57:16.739Z,22.13
2018-02-17T08:59:44.492Z,25.27
2018-02-17T09:02:12.292Z,26.75
2018-02-17T09:04:40.046Z,25.30
2018-02-17T09:07:07.788Z,28.87
2018-02-17T09:09:35.591Z,30.15
2018-02-17T09:12:03.357Z,27.87
2018-02-17T09:14:31.106Z,25.55
2018-02-17T09:16:58.900Z,29.37
2018-02-17T09:19:27.411Z,27.48
2018-02-17T09:21:55.189Z,28.98
2018-02-17T09:24:22.988Z,30.27
2018-02-17T09:26:51.514Z,27.02
2018-02-17T09:29:19.252Z,31.85
2018-02-17T09:31:47.053Z,26.92
2018-02-17T09:34:14.794Z,28.77
2018-02-17T09:36:42.541Z,31.80
2018-02-17T09:39:10.340Z,31.52
2018-02-17T09:41:38.081Z,28.98
2018-02-17T09:44:05.867Z,24.70
2018-02-17T09:46:33.667Z,30.42
2018-02-17T09:49:02.189Z,30.37
2018-02-17T09:51:29.942Z,26.98
2018-02-17T09:53:57.850Z,31.55
2018-02-17T09:56:25.613Z,28.77
2018-02-17T09:58:53.353Z,27.30
2018-02-17T10:01:21.149Z,27.87
2018-02-17T10:03:48.887Z,28.65
2018-02-17T10:06:16.623Z,28.50
2018-02-17T10:08:44.424Z,36.00
2018-02-17T10:11:12.164Z,27.58
2018-02-17T10:13:39.926Z,25.60
2018-02-17T10:16:07.764Z,35.30
2018-02-17T10:18:35.553Z,25.25
2018-02-17T10:21:03.293Z,26.50
2018-02-17T10:23:31.094Z,32.13
2018-02-17T10:25:58.889Z,29.55
2018-02-17T10:28:27.414Z,29.50
2018-02-17T10:30:55.226Z,34.35
2018-02-17T10:33:23.734Z,33.30
2018-02-17T10:35:51.473Z,26.42
2018-02-17T10:38:20.034Z,32.45
2018-02-17T10:40:47.777Z,36.15
2018-02-17T10:43:15.512Z,33.35
2018-02-17T10:45:43.310Z,27.13
2018-02-17T10:48:11.060Z,28.10
2018-02-17T10:50:38.843Z,26.85
2018-02-17T10:53:07.413Z,37.53
2018-02-17T10:55:38.092Z,31.27
2018-02-17T10:58:05.828Z,26.45
2018-02-17T11:00:34.388Z,29.25
2018-02-17T11:03:02.134Z,27.35
2018-02-17T11:05:29.876Z,25.05
2018-02-17T11:07:57.667Z,33.65
2018-02-17T11:10:25.409Z,36.65
2018-02-17T11:12:53.149Z,35.00
2018-02-17T11:15:20.940Z,29.27
2018-02-17T11:17:48.698Z,24.23
2018-02-17T11:20:16.450Z,31.45
2018-02-17T11:22:44.259Z,35.42
2018-02-17T11:25:12.765Z,38.80
2018-02-17T11:27:40.501Z,27.83
2018-02-17T11:30:09.475Z,27.52
2018-02-17T11:32:37.224Z,27.62
2018-02-17T11:35:04.968Z,23.60
2018-02-17T11:37:32.765Z,25.80
2018-02-17T11:40:00.512Z,29.83
2018-02-17T11:42:28.258Z,34.88
2018-02-17T11:44:56.065Z,24.83
2018-02-17T11:47:24.571Z,30.30
2018-02-17T11:49:52.314Z,29.63
2018-02-17T11:52:20.874Z,28.50
2018-02-17T11:54:48.618Z,28.65
2018-02-17T11:57:16.358Z,20.02
2018-02-17T11:59:44.155Z,25.08
2018-02-17T12:02:11.907Z,35.40
2018-02-17T12:04:39.650Z,32.08
2018-02-17T12:07:07.451Z,20.65
2018-02-17T12:09:35.957Z,21.40
2018-02-17T12:12:03.701Z,28.00
2018-02-17T12:14:32.258Z,24.80
2018-02-17T12:16:59.996Z,22.83
2018-02-17T12:19:28.503Z,22.77
2018-02-17T12:21:56.296Z,26.58
2018-02-17T12:24:24.037Z,19.60
2018-02-17T12:26:52.541Z,20.15
2018-02-17T12:29:20.343Z,23.75
2018-02-17T12:31:48.091Z,21.77
2018-02-17T12:34:15.865Z,15.10
2018-02-17T12:36:43.674Z,16.83
2018-02-17T12:39:12.181Z,22.00
2018-02-17T12:41:39.917Z,19.20
2018-02-17T12:44:08.472Z,19.00
2018-02-17T12:46:36.217Z,19.20
2018-02-17T12:49:03.983Z,18.75
2018-02-17T12:51:31.774Z,10.30
2018-02-17T12:54:00.290Z,13.15
2018-02-17T12:56:28.047Z,13.98
2018-02-17T12:58:55.849Z,18.10
2018-02-17T13:01:23.593Z,15.23
2018-02-17T13:03:51.324Z,13.23
2018-02-17T13:06:19.125Z,15.05
2018-02-17T13:08:46.873Z,16.52
2018-02-17T13:11:14.607Z,13.82
2018-02-17T13:13:42.475Z,9.52
2018-02-17T13:16:10.217Z,17.25
2018-02-17T13:18:38.721Z,12.73
2018-02-17T13:21:06.553Z,14.48
2018-02-17T13:23:35.053Z,9.93
2018-02-17T13:26:02.811Z,11.20
2018-02-17T13:28:30.683Z,12.30
2018-02-17T13:30:58.588Z,15.15
2018-02-17T13:33:26.971Z,13.13
2018-02-17T13:35:54.885Z,9.60
2018-02-17T13:38:22.855Z,13.30
2018-02-17T13:40:50.632Z,13.57
2018-02-17T13:43:18.428Z,16.52
2018-02-17T13:45:46.161Z,11.15
2018-02-17T13:48:13.898Z,8.73
2018-02-17T13:50:41.746Z,11.25
2018-02-17T13:53:10.246Z,8.68
2018-02-17T13:55:37.988Z,14.20
2018-02-17T13:58:06.559Z,15.20
2018-02-17T14:00:35.055Z,8.98
2018-02-17T14:03:02.815Z,16.37
2018-02-17T14:05:30.605Z,12.98
2018-02-17T14:07:58.351Z,11.57
2018-02-17T14:10:26.090Z,13.00
2018-02-17T14:12:54.650Z,15.43
2018-02-17T14:15:22.392Z,12.52
2018-02-17T14:17:50.135Z,9.50
2018-02-17T14:20:17.949Z,11.07
2018-02-17T14:22:46.459Z,10.77
2018-02-17T14:25:14.196Z,15.40
2018-02-17T14:27:42.751Z,14.55
2018-02-17T14:30:10.485Z,12.73
2018-02-17T14:32:38.222Z,12.60
2018-02-17T14:35:06.027Z,13.18
2018-02-17T14:37:33.810Z,11.60
2018-02-17T14:40:01.553Z,16.00
2018-02-17T14:42:29.349Z,17.33
2018-02-17T14:44:57.861Z,14.75
2018-02-17T14:47:25.653Z,10.43
2018-02-17T14:49:53.444Z,15.13
2018-02-17T14:52:21.966Z,13.43
2018-02-17T14:54:49.721Z,14.30
2018-02-17T14:57:17.524Z,15.25
2018-02-17T14:59:45.262Z,13.98
2018-02-17T15:02:13.000Z,10.25
2018-02-17T15:04:40.793Z,11.68
2018-02-17T15:07:08.528Z,8.27
2018-02-17T15:09:36.268Z,10.73
2018-02-17T15:12:04.833Z,9.30
2018-02-17T15:14:33.334Z,11.38
2018-02-17T15:17:01.074Z,14.85
2018-02-17T15:19:29.649Z,13.57
2018-02-17T15:21:57.434Z,12.25
2018-02-17T15:24:26.584Z,9.75
2018-02-17T15:26:54.397Z,9.55
2018-02-17T15:29:22.148Z,12.77
2018-02-17T15:31:50.652Z,10.80
2018-02-17T15:34:18.840Z,11.40
2018-02-17T15:36:46.572Z,13.95
2018-02-17T15:39:14.325Z,16.33
2018-02-17T15:41:42.897Z,11.00
2018-02-17T15:44:11.401Z,12.20
2018-02-17T15:46:39.141Z,9.57
2018-02-17T15:49:07.696Z,14.18
2018-02-17T15:51:35.430Z,9.95
2018-02-17T15:54:03.162Z,9.10
2018-02-17T15:56:30.953Z,17.37
2018-02-17T15:58:58.701Z,11.00
2018-02-17T16:01:26.442Z,16.98
2018-02-17T16:03:54.245Z,14.35
2018-02-17T16:06:22.041Z,13.90
2018-02-17T16:08:50.569Z,16.60
2018-02-17T16:11:18.381Z,15.02
2018-02-17T16:13:46.905Z,14.75
2018-02-17T16:16:14.658Z,17.25
2018-02-17T16:18:42.449Z,13.68
2018-02-17T16:21:10.400Z,12.52
2018-02-17T16:23:38.141Z,17.73
2018-02-17T16:26:05.942Z,13.27
2018-02-17T16:28:34.444Z,12.05
2018-02-17T16:31:02.186Z,12.85
2018-02-17T16:33:29.985Z,12.35
2018-02-17T16:35:58.488Z,17.85
2018-02-17T16:38:26.224Z,17.90
2018-02-17T16:40:54.784Z,15.40
2018-02-17T16:43:22.520Z,18.92
2018-02-17T16:45:50.292Z,17.65
2018-02-17T16:48:18.466Z,18.95
2018-02-17T16:50:46.221Z,19.98
2018-02-17T16:53:13.961Z,18.33
2018-02-17T16:55:51.485Z,29.52
2018-02-17T16:58:19.309Z,24.33
2018-02-17T17:00:47.059Z,24.10
2018-02-17T17:03:14.880Z,30.35
2018-02-17T17:05:42.617Z,26.77
2018-02-17T17:08:10.385Z,29.95
2018-02-17T17:10:38.198Z,28.40
2018-02-17T17:13:06.718Z,27.25
2018-02-17T17:15:36.650Z,26.48
2018-02-17T17:18:05.544Z,23.08
2018-02-17T17:20:33.298Z,23.95
2018-02-17T17:23:01.073Z,22.25
2018-02-17T17:25:28.876Z,35.30
2018-02-17T17:27:56.621Z,27.48
2018-02-17T17:30:25.126Z,33.78
2018-02-17T17:32:52.940Z,30.85
2018-02-17T17:35:20.682Z,33.22
2018-02-17T17:37:48.425Z,29.37
2018-02-17T17:40:16.216Z,31.98
2018-02-17T17:42:43.964Z,37.05
2018-02-17T17:45:11.713Z,27.58
2018-02-17T17:47:39.524Z,36.95
2018-02-17T17:50:08.035Z,33.67
2018-02-17T17:52:36.011Z,23.05
2018-02-17T17:55:03.836Z,24.25
2018-02-17T17:57:32.341Z,28.55
2018-02-17T18:00:00.083Z,27.65
2018-02-17T18:02:29.956Z,28.15
2018-02-17T18:04:57.930Z,31.55
2018-02-17T18:07:27.629Z,31.95
2018-02-17T18:09:55.725Z,23.65
2018-02-17T18:12:24.257Z,25.65
2018-02-17T18:14:51.992Z,25.83
2018-02-17T18:17:19.805Z,30.98
2018-02-17T18:19:47.553Z,27.40
2018-02-17T18:22:15.287Z,31.33
2018-02-17T18:24:43.083Z,32.28
2018-02-17T18:27:10.846Z,27.25
2018-02-17T18:29:38.589Z,30.45
2018-02-17T18:32:06.406Z,29.20
2018-02-17T18:34:34.910Z,29.60
2018-02-17T18:37:02.649Z,23.75
2018-02-17T18:39:31.216Z,39.47
2018-02-17T18:41:59.014Z,36.38
2018-02-17T18:44:26.773Z,40.28
2018-02-17T18:46:54.565Z,31.15
2018-02-17T18:49:22.301Z,36.00
2018-02-17T18:51:50.041Z,46.08
2018-02-17T18:54:18.610Z,43.85
2018-02-17T18:56:46.354Z,42.45
2018-02-17T18:59:14.117Z,39.05
2018-02-17T19:01:41.950Z,47.88
2018-02-17T19:04:09.697Z,44.22
2018-02-17T19:06:37.437Z,38.15
2018-02-17T19:09:05.997Z,42.17
2018-02-17T19:11:33.757Z,40.72
2018-02-17T19:14:01.515Z,41.42
2018-02-17T19:18:57.804Z,46.83
2018-02-17T19:21:25.669Z,46.60
2018-02-17T19:23:53.464Z,46.70
2018-02-17T19:26:21.265Z,44.97
2018-02-17T19:28:49.053Z,36.17
2018-02-17T19:31:16.850Z,42.67
2018-02-17T19:33:44.616Z,53.50
2018-02-17T19:36:12.357Z,41.65
2018-02-17T19:38:40.182Z,44.47
2018-02-17T19:41:08.698Z,51.53
2018-02-17T19:43:36.449Z,50.45
2018-02-17T19:46:04.255Z,47.15
2018-02-17T19:48:32.040Z,44.22
2018-02-17T19:50:59.806Z,55.35
2018-02-17T19:53:28.360Z,57.45
2018-02-17T19:55:56.145Z,46.53
2018-02-17T19:58:24.689Z,50.08
2018-02-17T20:00:52.488Z,31.15
2018-02-17T20:03:21.204Z,44.67
2018-02-17T20:05:50.024Z,37.10
2018-02-17T20:08:17.851Z,38.60
2018-02-17T20:10:45.653Z,38.00
2018-02-17T20:13:13.409Z,36.10
2018-02-17T20:15:41.348Z,41.75
2018-02-17T20:18:09.135Z,45.03
2018-02-17T20:20:36.976Z,50.33
2018-02-17T20:23:04.774Z,42.40
2018-02-17T20:25:32.524Z,36.03
2018-02-17T20:28:00.472Z,43.92
2018-02-17T20:30:28.301Z,39.70
2018-02-17T20:32:56.060Z,41.30
2018-02-17T20:35:23.900Z,43.42
2018-02-17T20:37:51.694Z,38.92
2018-02-17T20:40:19.448Z,38.17
2018-02-17T20:42:47.978Z,52.60
2018-02-17T20:45:15.800Z,51.53
2018-02-17T20:47:44.353Z,47.55
2018-02-17T20:50:12.855Z,41.53
2018-02-17T20:52:40.658Z,46.67
2018-02-17T20:55:08.400Z,54.47
2018-02-17T20:57:36.145Z,49.50
2018-02-17T21:00:03.990Z,47.42
2018-02-17T21:02:32.556Z,46.88
2018-02-17T21:05:00.299Z,57.53
2018-02-17T21:07:28.096Z,56.80
2018-02-17T21:09:56.601Z,44.88
2018-02-17T21:12:24.337Z,56.13
2018-02-17T21:14:53.048Z,52.22
2018-02-17T21:17:20.797Z,52.42
2018-02-17T21:19:48.549Z,56.63
2018-02-17T21:22:17.114Z,52.17
2018-02-17T21:24:45.669Z,58.90
2018-02-17T21:27:13.421Z,54.90
2018-02-17T21:29:41.269Z,57.95
2018-02-17T21:32:09.028Z,48.87
2018-02-17T21:34:36.805Z,56.55
2018-02-17T21:37:04.617Z,54.60
2018-02-17T21:39:32.372Z,49.85
2018-02-17T21:42:00.901Z,49.42
2018-02-17T21:44:28.729Z,52.58
2018-02-17T21:46:56.499Z,46.53
2018-02-17T21:49:24.241Z,53.00
2018-02-17T21:51:52.807Z,51.50
2018-02-17T21:54:20.559Z,53.58
2018-02-17T21:56:48.313Z,42.42
2018-02-17T21:59:16.109Z,52.55
2018-02-17T22:01:44.646Z,56.92
2018-02-17T22:04:12.393Z,50.15
2018-02-17T22:06:40.197Z,57.05
2018-02-17T22:09:07.937Z,54.55
2018-02-17T22:11:35.691Z,56.20
2018-02-17T22:14:03.486Z,59.05
2018-02-17T22:16:42.421Z,59.22
2018-02-17T22:19:10.990Z,55.40
2018-02-17T22:21:39.506Z,50.47
2018-02-17T22:24:07.276Z,54.58
2018-02-17T22:26:35.103Z,55.45
2018-02-17T22:29:03.609Z,59.67
2018-02-17T22:31:31.357Z,59.40
2018-02-17T22:33:59.149Z,59.28
2018-02-17T22:36:26.911Z,55.88
2018-02-17T22:38:54.648Z,66.12
2018-02-17T22:41:22.548Z,58.95
2018-02-17T22:43:50.294Z,60.25
2018-02-17T22:46:18.264Z,52.13
2018-02-17T22:48:46.370Z,63.30
2018-02-17T22:51:14.120Z,60.30
2018-02-17T22:53:42.654Z,50.90
2018-02-17T22:56:10.491Z,64.43
2018-02-17T22:58:39.191Z,67.20
2018-02-17T23:01:06.966Z,55.35
2018-02-17T23:03:34.767Z,63.80
2018-02-17T23:06:02.527Z,56.92
2018-02-17T23:08:30.322Z,63.10
2018-02-17T23:10:58.445Z,53.35
2018-02-17T23:13:26.307Z,55.80
2018-02-17T23:15:54.053Z,55.40
2018-02-17T23:18:21.965Z,68.65
2018-02-17T23:20:49.854Z,55.28
2018-02-17T23:23:18.397Z,64.62
2018-02-17T23:25:46.257Z,58.20
2018-02-17T23:28:14.070Z,58.97
2018-02-17T23:30:41.905Z,52.05
2018-02-17T23:33:09.804Z,43.25
2018-02-17T23:35:37.600Z,56.25
2018-02-17T23:38:05.535Z,55.03
2018-02-17T23:40:33.362Z,50.88
2018-02-17T23:43:01.162Z,53.80
2018-02-17T23:45:28.920Z,55.00
2018-02-17T23:47:56.720Z,54.58
2018-02-17T23:50:24.470Z,51.70
2018-02-17T23:52:52.208Z,54.33
2018-02-17T23:55:20.000Z,52.47
2018-02-17T23:57:47.737Z,54.13
